Fort Davis, TX

03:20 AM CDT del 23 Marzo 2017 (GMT -0500)
Mountain View | | Change Station
Avvisi attivi: Fire Weather Warning

Alt. 4870 ft 30.59 °N, 103.89 °W | Updated 27 seconds ago

Sereno
Sereno
63.4 °F
Sembra 63.4 °F
N
8.0
Vento Variabile Vento da SO

Oggi
Massima -- | Minima -- °F
--% Possibilità di precip.
Ieri
Massima -- | Minima -- °F
Precip. -- in
Pressione 29.88 in
Visibilità 10.0 miglia
Nuvole Sereno
Punto di rugiada 49 °F
Umidità 60%
Piovosità 0.00 in
Spessore del manto nevoso Non disponibile.
7:55 AM 8:09 PM
Luna calante, 25% visible
METAR KMRF 230756Z AUTO 14003KT 10SM CLR 14/11 A3006 RMK AO2 SLP117 T01440111
Pressione 29.88 in
Visibilità 10.0 miglia
Nuvole Sereno
Punto di rugiada 49 °F
Umidità 60%
Piovosità 0.00 in
Spessore del manto nevoso Non disponibile.
7:55 AM 8:09 PM
Luna calante, 25% visible
METAR KMRF 230756Z AUTO 14003KT 10SM CLR 14/11 A3006 RMK AO2 SLP117 T01440111

Get Your Daily Forecast Email!

Thanks for signing up!

Be on the lookout for a verification email in your inbox.

You'll start receiving severe weather alerts in your inbox..

×

10-Day Weather Forecast

Almanac

Astronomia

Mar. 23, 2017 Alba Tramonto
Ora attuale
Crepuscolo civile
Crepuscolo nautico
Crepuscolo astronomico
Luna
Estensione della luce visibile
Lunghezza del giorno
Tomorrow will be .
, % of the Moon is Illuminated

Gli estremi di oggi

State Highs State Lows

Community

WunderPhotos

Upload Photos

1,962,540 foto caricate!

WunderBlog® & News

Nearby

Qualità dell'aria

  Qualità dell'aria Indice AQ Inquinante
Not available.

Profondità neve

Stazione Profondità Altitudine

Attività sismica

Città  Distanza Mag. Data & Ora
Minimo Magnitudo Mostrato è 2.5.

Attività sismica

Città  Distanza Mag. Data & Ora
Minimo Magnitudo Mostrato è 2.5.

Temperature delle acque costiere

Località Temperatura

Stations

Stazioni meteo nelle vicinanze

Ubicazione della stazione Temp. Raffreddamento del vento Punto di rugiada Umidità Vento Precip. Alt. Aggiornato Tipo
                   

Watches & Warnings

Fire Weather Warning
Issued: 17:45 MDT Mar. 22, 2017 – National Weather Service

... Red flag warning now in effect from noon CDT /11 am MDT/
Thursday to 1 am CDT /midnight MDT/ Friday for relative humidity
of 15% or less, 20 foot winds of 20 mph or more, and very high to
extreme fire danger...

* humidity... 4 to 15%.

* Wind... southwest to west 20 to 35 mph. Above 6000 ft... west
winds 35 to 50 mph with higher gusts.

* Fire danger... very high to extreme.

* Impacts... any fires that develop will likely spread rapidly.
Outdoor burning is not recommended.

Precautionary/preparedness actions...

Do not throw cigarettes onto the ground or out of a moving
vehicle. Do not drive through tall grass. Avoid activities that
may produce outdoor flames or Sparks. Accidental ignitions will
have the potential to grow rapidly into dangerous wind-driven
wildfires.